createdAt,value
2023-02-24T00:00:22.232Z,6.8
2023-02-24T00:01:18.011Z,6.8
2023-02-24T00:02:22.345Z,6.8
2023-02-24T00:03:19.903Z,6.8
2023-02-24T00:04:56.949Z,6.7
2023-02-24T00:05:18.948Z,6.7
2023-02-24T00:06:18.034Z,6.7
2023-02-24T00:07:48.469Z,6.8
2023-02-24T00:08:24.664Z,6.9
2023-02-24T00:09:18.359Z,6.9
2023-02-24T00:10:18.695Z,6.9
2023-02-24T00:11:23.091Z,6.7
2023-02-24T00:12:24.955Z,6.7
2023-02-24T00:13:17.848Z,6.9
2023-02-24T00:14:17.994Z,6.9
2023-02-24T00:15:18.266Z,6.9
2023-02-24T00:16:18.205Z,6.9
2023-02-24T00:17:18.104Z,6.9
2023-02-24T00:18:18.062Z,6.9
2023-02-24T00:19:18.166Z,6.9
2023-02-24T00:20:22.799Z,6.8
2023-02-24T00:21:18.713Z,6.8
2023-02-24T00:22:18.512Z,6.7
2023-02-24T00:23:18.367Z,6.6
2023-02-24T00:24:18.419Z,6.8
2023-02-24T00:25:18.418Z,6.8
2023-02-24T00:26:18.570Z,6.8
2023-02-24T00:27:18.523Z,6.9
2023-02-24T00:28:23.578Z,6.9
2023-02-24T00:29:18.676Z,6.9
2023-02-24T00:30:18.725Z,6.9
2023-02-24T00:31:19.297Z,6.9
2023-02-24T00:32:39.203Z,6.9
2023-02-24T00:33:25.411Z,6.9
2023-02-24T00:34:53.968Z,6.9
2023-02-24T00:35:33.388Z,6.9
2023-02-24T00:37:35.892Z,6.8
2023-02-24T00:37:38.379Z,6.8
2023-02-24T00:38:41.970Z,6.9
2023-02-24T00:40:42.679Z,6.8
2023-02-24T00:40:43.577Z,6.8
2023-02-24T00:41:37.315Z,6.8
2023-02-24T00:47:20.298Z,6.6
2023-02-24T00:47:21.941Z,6.7
2023-02-24T00:50:04.769Z,6.6
2023-02-24T00:50:28.658Z,6.6
2023-02-24T00:52:41.916Z,6.5
2023-02-24T00:52:57.636Z,6.5
2023-02-24T00:55:21.311Z,6.6
2023-02-24T00:56:39.238Z,6.7
2023-02-24T00:57:28.713Z,6.7
2023-02-24T01:00:33.992Z,6.7
2023-02-24T01:00:48.271Z,6.7
2023-02-24T01:02:48.195Z,6.6
2023-02-24T01:03:20.656Z,6.6
2023-02-24T01:04:20.713Z,6.7
2023-02-24T01:05:20.713Z,6.7
2023-02-24T01:06:20.967Z,6.7
2023-02-24T01:07:20.802Z,6.6
2023-02-24T01:08:20.874Z,6.6
2023-02-24T01:09:20.978Z,6.6
2023-02-24T01:10:21.007Z,6.6
2023-02-24T01:11:21.439Z,6.7
2023-02-24T01:12:21.129Z,6.7
2023-02-24T01:13:21.139Z,6.7
2023-02-24T01:14:21.197Z,6.6
2023-02-24T01:15:21.307Z,6.6
2023-02-24T01:16:21.856Z,6.6
2023-02-24T01:17:21.454Z,6.6
2023-02-24T01:18:44.946Z,6.6
2023-02-24T01:19:38.147Z,6.6
2023-02-24T01:20:30.820Z,6.6
2023-02-24T01:21:55.355Z,6.6
2023-02-24T01:22:37.532Z,6.6
2023-02-24T01:24:09.862Z,6.6
2023-02-24T01:24:50.369Z,6.6
2023-02-24T01:25:24.022Z,6.6
2023-02-24T01:26:22.102Z,6.6
2023-02-24T01:27:27.100Z,6.5
2023-02-24T01:28:27.078Z,6.5
2023-02-24T01:29:22.163Z,6.5
2023-02-24T01:30:22.212Z,6.5
2023-02-24T01:31:22.708Z,6.6
2023-02-24T01:32:22.497Z,6.5
2023-02-24T01:33:22.352Z,6.5
2023-02-24T01:34:22.405Z,6.6
2023-02-24T01:35:22.546Z,6.5
2023-02-24T01:36:22.551Z,6.6
2023-02-24T01:37:22.564Z,6.6
2023-02-24T01:38:22.679Z,6.6
2023-02-24T01:39:22.717Z,6.6
2023-02-24T01:40:26.238Z,6.6
2023-02-24T01:41:22.828Z,6.6
2023-02-24T01:42:28.471Z,6.6
2023-02-24T01:43:22.980Z,6.5
2023-02-24T01:44:23.306Z,6.4
2023-02-24T01:45:23.686Z,6.4
2023-02-24T01:46:23.232Z,6.4
2023-02-24T01:47:23.436Z,6.5
2023-02-24T01:48:26.062Z,6.5
2023-02-24T01:49:23.396Z,6.4
2023-02-24T01:50:23.493Z,6.4
2023-02-24T01:51:24.698Z,6.4
2023-02-24T01:52:23.799Z,6.4
2023-02-24T01:53:23.497Z,6.4
2023-02-24T01:54:23.651Z,6.4
2023-02-24T01:55:23.686Z,6.5
2023-02-24T01:56:23.750Z,6.4
2023-02-24T01:57:25.070Z,6.4
2023-02-24T01:58:23.816Z,6.5
2023-02-24T01:59:23.989Z,6.5
2023-02-24T02:00:24.031Z,6.4
2023-02-24T02:01:24.298Z,6.3
2023-02-24T02:02:24.173Z,6.3
2023-02-24T02:03:24.171Z,6.3
2023-02-24T02:04:25.215Z,6.3
2023-02-24T02:05:24.263Z,6.3
2023-02-24T02:06:24.286Z,6.4
2023-02-24T02:07:24.397Z,6.3
2023-02-24T02:10:46.074Z,6.3
2023-02-24T02:11:24.720Z,6.3
2023-02-24T02:12:24.811Z,6.4
2023-02-24T02:13:24.708Z,6.4
2023-02-24T02:14:24.777Z,6.3
2023-02-24T02:15:24.785Z,6.3
2023-02-24T02:16:24.949Z,6.3
2023-02-24T02:17:24.892Z,6.2
2023-02-24T02:18:24.941Z,6.2
2023-02-24T02:19:25.002Z,6.2
2023-02-24T02:20:25.027Z,6.2
2023-02-24T02:21:25.108Z,6.2
2023-02-24T02:22:25.218Z,6.1
2023-02-24T02:23:25.250Z,6.2
2023-02-24T02:24:25.309Z,6.2
2023-02-24T02:25:25.358Z,6.2
2023-02-24T02:26:25.421Z,6.2
2023-02-24T02:27:25.436Z,6.2
2023-02-24T02:28:25.528Z,6.2
2023-02-24T02:29:25.613Z,6.2
2023-02-24T02:30:25.620Z,6.2
2023-02-24T02:31:26.180Z,6.1
2023-02-24T02:32:25.943Z,6
2023-02-24T02:33:25.824Z,6
2023-02-24T02:34:25.862Z,6
2023-02-24T02:35:25.908Z,5.9
2023-02-24T02:36:25.991Z,5.9
2023-02-24T02:37:26.042Z,6
2023-02-24T02:38:26.346Z,6
2023-02-24T02:39:26.149Z,5.9
2023-02-24T02:40:26.179Z,6
2023-02-24T02:41:26.282Z,5.9
2023-02-24T02:42:26.310Z,5.8
2023-02-24T02:43:26.513Z,5.7
2023-02-24T02:44:26.451Z,5.7
2023-02-24T02:45:26.809Z,5.7
2023-02-24T02:46:27.172Z,5.7
2023-02-24T02:47:35.843Z,5.7
2023-02-24T02:48:33.566Z,5.8
2023-02-24T02:49:33.395Z,5.8
2023-02-24T02:50:29.180Z,5.9
2023-02-24T02:51:32.934Z,5.8
2023-02-24T02:52:31.576Z,5.7
2023-02-24T02:54:07.070Z,5.8
2023-02-24T02:54:35.132Z,5.8
2023-02-24T02:55:49.301Z,5.8
2023-02-24T02:56:30.750Z,5.9
2023-02-24T02:58:20.355Z,5.9
2023-02-24T02:58:27.822Z,5.9
2023-02-24T02:59:27.860Z,5.9
2023-02-24T03:00:33.566Z,5.9
2023-02-24T03:01:36.717Z,5.9
2023-02-24T03:02:35.915Z,5.9
2023-02-24T03:05:00.441Z,5.9
2023-02-24T03:05:01.882Z,6
2023-02-24T03:06:06.089Z,6.1
2023-02-24T03:06:31.709Z,6.1
2023-02-24T03:08:02.261Z,6
2023-02-24T03:08:33.135Z,5.9
2023-02-24T03:09:49.683Z,5.9
2023-02-24T03:10:29.230Z,5.9
2023-02-24T03:11:33.226Z,6
2023-02-24T03:12:45.641Z,5.9
2023-02-24T03:14:07.586Z,5.9
2023-02-24T03:14:34.408Z,6
2023-02-24T03:15:51.221Z,5.9
2023-02-24T03:16:31.465Z,5.9
2023-02-24T03:17:58.659Z,5.9
2023-02-24T03:18:31.438Z,5.8
2023-02-24T03:19:38.165Z,5.8
2023-02-24T03:20:34.441Z,5.9
2023-02-24T03:21:43.519Z,5.9
2023-02-24T03:22:33.959Z,5.9
2023-02-24T03:23:54.439Z,5.8
2023-02-24T03:24:36.965Z,5.8
2023-02-24T03:25:38.824Z,5.8
2023-02-24T03:26:31.052Z,5.7
2023-02-24T03:27:46.438Z,5.7
2023-02-24T03:28:37.634Z,5.7
2023-02-24T03:30:12.149Z,5.7
2023-02-24T03:30:37.030Z,5.8
2023-02-24T03:31:50.948Z,5.8
2023-02-24T03:32:30.718Z,5.8
2023-02-24T03:33:29.148Z,5.7
2023-02-24T03:34:29.325Z,5.7
2023-02-24T03:35:29.249Z,5.8
2023-02-24T03:36:29.374Z,5.8
2023-02-24T03:37:29.457Z,5.7
2023-02-24T03:38:29.564Z,5.6
2023-02-24T03:39:29.646Z,5.6
2023-02-24T03:40:29.654Z,5.7
2023-02-24T03:41:29.709Z,5.7
2023-02-24T03:42:34.752Z,5.7
2023-02-24T03:43:29.875Z,5.6
2023-02-24T03:44:29.851Z,5.6
2023-02-24T03:45:30.261Z,5.6
2023-02-24T03:46:30.005Z,5.6
2023-02-24T03:47:32.189Z,5.6
2023-02-24T03:48:30.150Z,5.7
2023-02-24T03:49:31.866Z,5.7
2023-02-24T03:50:37.815Z,5.8
2023-02-24T03:51:58.696Z,5.7
2023-02-24T03:52:32.284Z,5.6
2023-02-24T03:53:57.402Z,5.6
2023-02-24T03:54:31.433Z,5.6
2023-02-24T03:55:38.150Z,5.5
2023-02-24T03:56:31.100Z,5.5
2023-02-24T03:57:48.909Z,5.7
2023-02-24T03:58:50.297Z,5.7
2023-02-24T03:59:43.747Z,5.6
2023-02-24T05:14:37.029Z,5
2023-02-24T05:14:37.940Z,5.1
2023-02-24T05:15:34.968Z,5
2023-02-24T05:16:36.621Z,5
2023-02-24T05:17:41.260Z,5.2
2023-02-24T05:18:35.100Z,5.1
2023-02-24T05:19:55.938Z,5
2023-02-24T05:21:33.494Z,4.9
2023-02-24T05:22:00.552Z,5
2023-02-24T05:22:39.722Z,4.9
2023-02-24T05:23:47.108Z,4.9
2023-02-24T05:24:41.093Z,4.9
2023-02-24T05:25:51.178Z,5
2023-02-24T05:26:35.672Z,5
2023-02-24T05:27:40.546Z,5
2023-02-24T05:28:48.354Z,4.9
2023-02-24T05:29:44.611Z,4.9
2023-02-24T05:30:35.841Z,5
2023-02-24T05:31:35.984Z,5.1
2023-02-24T05:32:35.992Z,5
2023-02-24T05:33:35.972Z,5
2023-02-24T05:34:36.002Z,4.9
2023-02-24T05:35:36.088Z,4.9
2023-02-24T05:36:36.136Z,5
2023-02-24T05:37:36.168Z,5.1
2023-02-24T05:38:36.203Z,5.1
2023-02-24T05:39:36.248Z,5
2023-02-24T05:40:36.339Z,4.9
2023-02-24T05:41:36.386Z,4.9
2023-02-24T05:42:36.414Z,4.9
2023-02-24T05:43:36.464Z,4.8
2023-02-24T05:44:36.521Z,4.9
2023-02-24T05:45:36.662Z,5
2023-02-24T05:46:36.745Z,5
2023-02-24T05:47:36.695Z,5
2023-02-24T05:48:36.727Z,5
2023-02-24T05:49:36.807Z,4.9
2023-02-24T05:50:36.915Z,4.9
2023-02-24T05:51:36.948Z,4.9
2023-02-24T05:52:36.986Z,4.8
2023-02-24T05:53:42.089Z,4.8
2023-02-24T05:54:37.128Z,5.1
2023-02-24T05:55:37.243Z,5
2023-02-24T05:56:42.304Z,4.9
2023-02-24T05:57:37.327Z,4.9
2023-02-24T05:58:37.371Z,4.8
2023-02-24T05:59:37.399Z,4.8
2023-02-24T06:00:37.530Z,4.8
2023-02-24T06:01:37.609Z,4.8
2023-02-24T06:02:37.687Z,4.7
2023-02-24T06:03:37.692Z,4.8
2023-02-24T06:04:37.713Z,4.9
2023-02-24T06:05:37.750Z,4.8
2023-02-24T06:06:37.781Z,4.7
2023-02-24T06:07:37.878Z,4.8
2023-02-24T06:08:37.916Z,4.8
2023-02-24T06:09:37.989Z,4.8
2023-02-24T06:10:38.033Z,4.8
2023-02-24T06:11:43.182Z,4.8
2023-02-24T06:12:38.157Z,4.8
2023-02-24T06:13:38.213Z,4.9
2023-02-24T06:14:38.253Z,5
2023-02-24T06:15:38.423Z,4.9
2023-02-24T06:16:38.480Z,5
2023-02-24T06:17:38.492Z,4.9
2023-02-24T06:18:38.545Z,4.8
2023-02-24T06:19:38.567Z,4.8
2023-02-24T06:20:38.631Z,4.8
2023-02-24T06:21:38.645Z,4.8
2023-02-24T06:22:38.751Z,4.8
2023-02-24T06:23:38.795Z,4.8
2023-02-24T06:24:38.861Z,4.9
2023-02-24T06:25:38.907Z,4.8
2023-02-24T06:26:38.981Z,4.7
2023-02-24T06:27:39.306Z,4.8
2023-02-24T06:28:39.087Z,4.8
2023-02-24T06:29:41.678Z,4.7
2023-02-24T06:30:43.685Z,4.8
2023-02-24T06:31:51.078Z,4.9
2023-02-24T06:32:39.537Z,4.9
2023-02-24T06:33:46.715Z,4.9
2023-02-24T06:34:39.436Z,5
2023-02-24T06:35:40.202Z,4.8
2023-02-24T06:36:46.918Z,4.7
2023-02-24T06:37:48.431Z,4.8
2023-02-24T06:38:39.690Z,4.6
2023-02-24T06:39:43.905Z,4.6
2023-02-24T06:40:39.823Z,4.7
2023-02-24T06:41:51.941Z,4.8
2023-02-24T06:42:47.481Z,4.7
2023-02-24T06:43:51.411Z,4.8
2023-02-24T06:44:40.027Z,4.8
2023-02-24T06:45:46.998Z,4.8
2023-02-24T06:46:40.151Z,4.8
2023-02-24T06:47:56.228Z,4.8
2023-02-24T06:48:46.713Z,4.8
2023-02-24T06:49:57.457Z,4.8
2023-02-24T06:50:42.072Z,4.8
2023-02-24T06:52:00.103Z,4.9
2023-02-24T06:52:40.484Z,4.8
2023-02-24T06:54:05.296Z,4.9
2023-02-24T06:54:46.990Z,5.1
2023-02-24T06:55:40.670Z,5.1
2023-02-24T06:56:40.719Z,5.1
2023-02-24T06:57:47.633Z,4.8
2023-02-24T06:58:40.821Z,4.7
2023-02-24T06:59:40.877Z,4.7
2023-02-24T07:00:49.910Z,4.7
2023-02-24T07:01:41.011Z,4.8
2023-02-24T07:02:53.548Z,5
2023-02-24T07:03:52.280Z,5
2023-02-24T07:04:41.185Z,5.1
2023-02-24T07:05:41.234Z,5.1
2023-02-24T07:06:51.569Z,5
2023-02-24T07:07:41.354Z,4.9
2023-02-24T07:08:41.395Z,4.9
2023-02-24T07:09:55.118Z,4.9
2023-02-24T07:10:41.550Z,4.9
2023-02-24T07:11:41.599Z,5.1
2023-02-24T07:12:52.385Z,5
2023-02-24T07:13:41.777Z,4.9
2023-02-24T07:14:41.826Z,4.8
2023-02-24T07:15:52.013Z,4.8
2023-02-24T07:16:41.943Z,4.9
2023-02-24T07:17:41.934Z,5.1
2023-02-24T07:18:53.226Z,5.1
2023-02-24T07:19:42.043Z,5
2023-02-24T07:20:42.196Z,5
2023-02-24T07:22:11.750Z,5
2023-02-24T07:22:42.251Z,5
2023-02-24T07:23:42.331Z,4.9
2023-02-24T07:25:05.474Z,4.9
2023-02-24T07:25:42.470Z,5
2023-02-24T07:26:42.500Z,5.2
2023-02-24T07:28:05.842Z,5.2
2023-02-24T07:28:42.566Z,5
2023-02-24T07:29:42.666Z,5
2023-02-24T07:31:05.098Z,5
2023-02-24T07:31:43.201Z,4.9
2023-02-24T07:32:42.915Z,4.9
2023-02-24T07:34:05.293Z,5
2023-02-24T07:34:42.940Z,5
2023-02-24T07:35:42.968Z,5
2023-02-24T07:37:05.249Z,5
2023-02-24T07:37:43.105Z,4.9
2023-02-24T07:38:43.099Z,5.1
2023-02-24T07:40:05.056Z,5
2023-02-24T07:40:43.223Z,5.1
2023-02-24T07:41:43.308Z,5.2
2023-02-24T07:43:04.153Z,5.1
2023-02-24T07:43:43.344Z,5
2023-02-24T07:44:43.421Z,5
2023-02-24T07:46:04.448Z,5
2023-02-24T07:46:43.583Z,5
2023-02-24T07:47:43.688Z,5
2023-02-24T07:49:04.686Z,5
2023-02-24T07:49:43.746Z,5.1
2023-02-24T07:50:43.766Z,5.3
2023-02-24T07:52:11.873Z,5.3
2023-02-24T07:52:43.866Z,5.1
2023-02-24T07:53:44.626Z,5.1
2023-02-24T07:55:07.628Z,5.2
2023-02-24T07:55:44.084Z,5.2
2023-02-24T07:56:44.114Z,5
2023-02-24T07:58:08.053Z,4.9
2023-02-24T07:58:44.234Z,5
2023-02-24T07:59:44.378Z,5
2023-02-24T08:01:06.149Z,5
2023-02-24T08:01:44.487Z,5.1
2023-02-24T08:02:44.495Z,5
2023-02-24T08:04:06.409Z,5
2023-02-24T08:04:47.932Z,5
2023-02-24T08:05:44.647Z,4.9
2023-02-24T08:07:05.631Z,5
2023-02-24T08:07:44.747Z,5
2023-02-24T08:08:44.778Z,5.1
2023-02-24T08:10:05.852Z,5.1
2023-02-24T08:10:44.892Z,5.2
2023-02-24T08:11:44.968Z,5.1
2023-02-24T08:13:05.461Z,5.1
2023-02-24T08:13:45.087Z,5
2023-02-24T08:14:45.138Z,4.9
2023-02-24T08:16:11.119Z,5
2023-02-24T08:16:45.278Z,5.2
2023-02-24T08:17:45.397Z,5.4
2023-02-24T08:19:06.440Z,5.3
2023-02-24T08:19:45.414Z,5.1
2023-02-24T08:20:45.493Z,5.3
2023-02-24T08:22:12.849Z,5.3
2023-02-24T08:22:45.594Z,5.3
2023-02-24T08:23:45.671Z,5.2
2023-02-24T08:25:13.086Z,5.3
2023-02-24T08:25:45.883Z,5.3
2023-02-24T08:26:45.982Z,5.4
2023-02-24T08:28:12.298Z,5.3
2023-02-24T08:28:46.087Z,5.2
2023-02-24T08:29:46.131Z,5.2
2023-02-24T08:31:11.780Z,5.1
2023-02-24T08:31:46.365Z,5.1
2023-02-24T08:32:46.437Z,5
2023-02-24T08:34:14.010Z,4.9
2023-02-24T08:34:46.423Z,4.9
2023-02-24T08:35:46.480Z,5
2023-02-24T08:37:10.486Z,5.2
2023-02-24T08:37:46.618Z,5.2
2023-02-24T08:38:46.645Z,5.3
2023-02-24T08:40:35.769Z,5.3
2023-02-24T08:40:46.794Z,5.3
2023-02-24T08:41:46.868Z,5.2
2023-02-24T08:43:12.554Z,5.1
2023-02-24T08:43:47.001Z,5.1
2023-02-24T08:44:47.011Z,5.2
2023-02-24T08:46:10.935Z,5.1
2023-02-24T08:46:47.153Z,5.3
2023-02-24T08:47:47.236Z,5.3
2023-02-24T08:49:11.478Z,5.2
2023-02-24T08:49:47.297Z,5.2
2023-02-24T08:50:47.432Z,5.2
2023-02-24T08:52:11.856Z,5.3
2023-02-24T08:52:47.524Z,5.4
2023-02-24T08:53:47.558Z,5.3
2023-02-24T08:55:11.639Z,5.2
2023-02-24T08:55:47.696Z,5.1
2023-02-24T08:56:47.725Z,5
2023-02-24T08:58:11.743Z,5.2
2023-02-24T08:58:47.850Z,5.3
2023-02-24T08:59:47.873Z,5.2
2023-02-24T09:01:11.935Z,5.2
2023-02-24T09:01:53.314Z,5.2
2023-02-24T09:02:48.062Z,5.3
2023-02-24T09:03:59.439Z,5.4
2023-02-24T09:05:01.935Z,5.2
2023-02-24T09:05:50.483Z,5
2023-02-24T09:07:12.278Z,5
2023-02-24T09:07:50.175Z,5.1
2023-02-24T09:08:48.387Z,5.1
2023-02-24T09:10:12.856Z,5.2
2023-02-24T09:10:48.478Z,5.2
2023-02-24T09:11:48.590Z,5.1
2023-02-24T09:13:12.988Z,5
2023-02-24T09:13:48.690Z,4.9
2023-02-24T09:14:48.730Z,5
2023-02-24T09:16:12.959Z,5
2023-02-24T09:16:48.853Z,5.1
2023-02-24T09:17:48.873Z,5.3
2023-02-24T09:19:12.751Z,5.3
2023-02-24T09:19:49.053Z,5
2023-02-24T09:20:49.114Z,5.1
2023-02-24T09:22:21.059Z,5.2
2023-02-24T09:22:49.197Z,5.2
2023-02-24T09:23:49.223Z,5.2
2023-02-24T09:25:15.081Z,5.2
2023-02-24T09:25:49.371Z,5.1
2023-02-24T09:26:49.385Z,5.1
2023-02-24T09:28:15.950Z,5.2
2023-02-24T09:28:49.582Z,5.3
2023-02-24T09:29:49.572Z,5.2
2023-02-24T09:31:14.353Z,5.2
2023-02-24T09:31:49.812Z,5.4
2023-02-24T09:32:49.932Z,5.3
2023-02-24T09:34:14.043Z,5.3
2023-02-24T09:34:49.881Z,5.3
2023-02-24T09:35:49.920Z,5.2
2023-02-24T09:37:15.305Z,5.3
2023-02-24T09:37:50.007Z,5.3
2023-02-24T09:38:52.639Z,5.3
2023-02-24T09:40:13.762Z,5.3
2023-02-24T09:40:50.218Z,5.4
2023-02-24T09:41:50.222Z,5.3
2023-02-24T09:43:15.264Z,5.3
2023-02-24T09:43:50.399Z,5.3
2023-02-24T09:44:50.458Z,5.3
2023-02-24T09:46:15.267Z,5.4
2023-02-24T09:46:50.676Z,5.5
2023-02-24T09:47:50.576Z,5.5
2023-02-24T09:49:14.142Z,5.3
2023-02-24T09:49:50.718Z,5.3
2023-02-24T09:51:02.449Z,5.2
2023-02-24T09:52:16.762Z,5.1
2023-02-24T09:52:52.146Z,5.2
2023-02-24T09:53:50.897Z,5.3
2023-02-24T09:55:14.804Z,5.3
2023-02-24T09:55:51.016Z,5.4
2023-02-24T09:56:51.071Z,5.4
2023-02-24T09:58:15.054Z,5.4
2023-02-24T09:58:51.187Z,5.3
2023-02-24T09:59:51.256Z,5.3
2023-02-24T10:01:15.420Z,5.4
2023-02-24T10:01:51.360Z,5.4
2023-02-24T10:02:51.396Z,5.3
2023-02-24T10:04:20.957Z,5.3
2023-02-24T10:04:51.485Z,5.3
2023-02-24T10:05:51.542Z,5.2
2023-02-24T10:07:15.253Z,5.1
2023-02-24T10:07:51.668Z,5.1
2023-02-24T10:08:51.715Z,5.1
2023-02-24T10:10:18.898Z,5.1
2023-02-24T10:10:51.814Z,5.2
2023-02-24T10:11:51.904Z,5.3
2023-02-24T10:13:17.575Z,5.4
2023-02-24T10:13:52.047Z,5.4
2023-02-24T10:14:52.150Z,5.3
2023-02-24T10:16:19.905Z,5.3
2023-02-24T10:16:52.253Z,5.3
2023-02-24T10:17:52.295Z,5.3
2023-02-24T10:19:16.729Z,5.4
2023-02-24T10:19:52.345Z,5.4
2023-02-24T10:20:52.529Z,5.5
2023-02-24T10:22:19.480Z,5.5
2023-02-24T10:22:52.566Z,5.4
2023-02-24T10:23:54.776Z,5.4
2023-02-24T10:25:22.125Z,5.4
2023-02-24T10:25:52.671Z,5.4
2023-02-24T10:27:00.557Z,5.5
2023-02-24T10:28:18.542Z,5.6
2023-02-24T10:28:53.291Z,5.7
2023-02-24T10:29:52.928Z,5.6
2023-02-24T10:31:18.664Z,5.7
2023-02-24T10:31:53.310Z,5.6
2023-02-24T10:32:53.198Z,5.6
2023-02-24T10:34:17.857Z,5.6
2023-02-24T10:34:53.279Z,5.6
2023-02-24T10:35:53.269Z,5.6
2023-02-24T10:37:27.903Z,5.6
2023-02-24T10:37:53.337Z,5.6
2023-02-24T10:38:53.658Z,5.6
2023-02-24T10:40:18.935Z,5.6
2023-02-24T10:40:53.527Z,5.5
2023-02-24T10:41:53.657Z,5.6
2023-02-24T10:43:19.362Z,5.5
2023-02-24T10:43:54.065Z,5.5
2023-02-24T10:45:01.644Z,5.5
2023-02-24T10:46:26.325Z,5.6
2023-02-24T10:46:57.911Z,5.6
2023-02-24T10:47:53.927Z,5.6
2023-02-24T10:49:19.377Z,5.7
2023-02-24T10:49:54.062Z,5.6
2023-02-24T10:50:56.135Z,5.4
2023-02-24T10:52:20.794Z,5.4
2023-02-24T10:52:54.208Z,5.5
2023-02-24T10:53:54.278Z,5.6
2023-02-24T10:55:22.597Z,5.5
2023-02-24T10:55:54.403Z,5.5
2023-02-24T10:56:54.399Z,5.6
2023-02-24T10:58:20.415Z,5.5
2023-02-24T10:58:54.500Z,5.4
2023-02-24T10:59:54.594Z,5.4
2023-02-24T11:01:20.861Z,5.4
2023-02-24T11:01:54.976Z,5.4
2023-02-24T11:02:54.790Z,5.4
2023-02-24T11:04:20.153Z,5.5
2023-02-24T11:04:54.881Z,5.4
2023-02-24T11:05:54.926Z,5.4
2023-02-24T11:07:22.189Z,5.5
2023-02-24T11:07:55.014Z,5.6
2023-02-24T11:08:55.094Z,5.7
2023-02-24T11:10:19.130Z,5.6
2023-02-24T11:10:55.248Z,5.5
2023-02-24T11:11:55.256Z,5.5
2023-02-24T11:13:26.952Z,5.4
2023-02-24T11:13:55.367Z,5.3
2023-02-24T11:14:55.428Z,5.4
2023-02-24T11:16:30.285Z,5.3
2023-02-24T11:16:55.666Z,5.4
2023-02-24T11:17:55.657Z,5.4
2023-02-24T11:18:55.970Z,5.6
2023-02-24T11:19:55.755Z,5.7
2023-02-24T11:20:59.698Z,5.8
2023-02-24T11:21:55.948Z,5.6
2023-02-24T11:22:56.655Z,5.5
2023-02-24T11:23:55.976Z,5.5
2023-02-24T11:25:00.481Z,5.3
2023-02-24T11:25:56.058Z,5.4
2023-02-24T11:26:57.290Z,5.5
2023-02-24T11:27:56.168Z,5.4
2023-02-24T11:29:06.790Z,5.3
2023-02-24T11:29:56.316Z,5.3
2023-02-24T11:31:07.687Z,5.3
2023-02-24T11:32:17.770Z,5.3
2023-02-24T11:33:08.275Z,5.2
2023-02-24T11:34:01.315Z,5.2
2023-02-24T11:35:26.949Z,5.3
2023-02-24T11:36:00.007Z,5.3
2023-02-24T11:37:32.834Z,5.3
2023-02-24T11:38:28.411Z,5.1
2023-02-24T11:39:36.888Z,5.1
2023-02-24T11:39:56.875Z,5.1
2023-02-24T11:41:49.507Z,5.2
2023-02-24T11:42:52.782Z,5.3
2023-02-24T11:43:01.185Z,5.3
2023-02-24T11:45:59.061Z,5.3
2023-02-24T11:46:00.500Z,5.2
2023-02-24T11:46:57.309Z,5.3
2023-02-24T11:47:57.380Z,5.3
2023-02-24T11:48:57.403Z,5.3
2023-02-24T11:49:57.488Z,5.3
2023-02-24T11:50:57.511Z,5.1
2023-02-24T11:52:07.584Z,5.1
2023-02-24T11:52:57.633Z,5.1
2023-02-24T11:54:06.981Z,5.1
2023-02-24T11:55:13.973Z,5
2023-02-24T11:55:57.782Z,5
2023-02-24T11:56:57.837Z,5.2
2023-02-24T11:57:57.882Z,5.2
2023-02-24T11:58:57.890Z,5.2
2023-02-24T12:00:07.694Z,5.1
2023-02-24T12:02:07.481Z,5.2
2023-02-24T12:02:58.201Z,5.2
2023-02-24T12:04:11.083Z,5.2
2023-02-24T12:04:58.252Z,5.2
2023-02-24T12:06:04.225Z,5.1
2023-02-24T12:07:14.338Z,5.1
2023-02-24T12:08:08.306Z,5.1
2023-02-24T12:08:58.447Z,5
2023-02-24T12:10:10.609Z,4.9
2023-02-24T12:10:58.581Z,4.9
2023-02-24T12:11:58.631Z,4.9
2023-02-24T12:13:16.554Z,5
2023-02-24T12:13:58.740Z,5.1
2023-02-24T12:14:58.788Z,5.2
2023-02-24T12:16:03.755Z,5.2
2023-02-24T12:16:58.927Z,5.3
2023-02-24T12:18:11.790Z,5.3
2023-02-24T12:19:16.525Z,5.3
2023-02-24T12:20:10.853Z,5
2023-02-24T12:20:59.148Z,4.7
2023-02-24T12:22:19.850Z,4.8
2023-02-24T12:22:59.340Z,4.8
2023-02-24T12:23:59.323Z,4.9
2023-02-24T12:25:16.065Z,4.8
2023-02-24T12:26:04.839Z,4.6
2023-02-24T12:26:59.516Z,4.5
2023-02-24T12:28:21.301Z,4.5
2023-02-24T12:28:59.605Z,4.4
2023-02-24T12:29:59.703Z,4.4
2023-02-24T12:31:16.218Z,4.4
2023-02-24T12:31:59.886Z,4.5
2023-02-24T12:32:59.912Z,4.5
2023-02-24T12:34:20.627Z,4.5
2023-02-24T12:34:59.918Z,4.5
2023-02-24T12:36:02.761Z,4.4
2023-02-24T12:37:16.314Z,4.4
2023-02-24T12:38:00.119Z,4.4
2023-02-24T12:39:00.157Z,4.3
2023-02-24T12:40:15.879Z,4.2
2023-02-24T12:41:00.261Z,4.2
2023-02-24T12:42:00.317Z,4.2
2023-02-24T12:43:15.506Z,4.3
2023-02-24T12:44:00.441Z,4.3
2023-02-24T12:45:00.502Z,4.3
2023-02-24T12:46:00.592Z,4.4
2023-02-24T12:47:00.572Z,4.2
2023-02-24T12:48:00.631Z,4.2
2023-02-24T12:49:00.740Z,4.2
2023-02-24T12:50:00.783Z,4.3
2023-02-24T12:51:00.871Z,4.5
2023-02-24T12:52:00.919Z,4.3
2023-02-24T12:53:06.650Z,4.1
2023-02-24T12:54:02.442Z,4.1
2023-02-24T12:55:01.615Z,4.4
2023-02-24T12:56:01.152Z,4.5
2023-02-24T12:57:01.221Z,4.4
2023-02-24T12:58:01.245Z,4.4
2023-02-24T12:59:01.399Z,4.3
2023-02-24T13:00:01.352Z,4.1
2023-02-24T13:01:16.668Z,4.1
2023-02-24T13:02:05.561Z,4
2023-02-24T13:03:01.496Z,4
2023-02-24T13:04:16.876Z,4
2023-02-24T13:05:01.586Z,4.1
2023-02-24T13:06:05.812Z,4.3
2023-02-24T13:07:16.297Z,4.3
2023-02-24T13:08:05.915Z,4.2
2023-02-24T13:09:01.794Z,4.2
2023-02-24T13:10:16.944Z,4.1
2023-02-24T13:11:01.917Z,4.2
2023-02-24T13:12:02.004Z,4.1
2023-02-24T13:13:16.640Z,4.2
2023-02-24T13:14:02.060Z,4.2
2023-02-24T13:15:02.139Z,4.3
2023-02-24T13:16:22.862Z,4.3
2023-02-24T13:17:02.280Z,4.1
2023-02-24T13:18:02.330Z,4
2023-02-24T13:19:18.661Z,4
2023-02-24T13:20:02.412Z,4
2023-02-24T13:21:02.461Z,4
2023-02-24T13:22:16.397Z,4
2023-02-24T13:23:02.568Z,4.1
2023-02-24T13:24:02.602Z,4.2
2023-02-24T13:25:17.797Z,4.3
2023-02-24T13:26:02.954Z,4.2
2023-02-24T13:27:02.801Z,4.2
2023-02-24T13:28:16.095Z,4.4
2023-02-24T13:29:02.894Z,4.4
2023-02-24T13:30:02.936Z,4.4
2023-02-24T13:31:17.166Z,4.6
2023-02-24T13:32:03.133Z,4.5
2023-02-24T13:33:03.109Z,4.5
2023-02-24T13:34:17.021Z,4.5
2023-02-24T13:35:03.233Z,4.6
2023-02-24T13:36:03.714Z,4.6
2023-02-24T13:37:16.732Z,4.5
2023-02-24T13:38:03.377Z,4.4
2023-02-24T13:39:03.451Z,4.4
2023-02-24T13:40:16.875Z,4.3
2023-02-24T13:41:03.614Z,4.3
2023-02-24T13:42:03.647Z,4.3
2023-02-24T13:43:14.932Z,4.4
2023-02-24T13:44:03.732Z,4.1
2023-02-24T13:45:03.787Z,4.3
2023-02-24T13:46:07.668Z,4.2
2023-02-24T13:47:03.917Z,4.3
2023-02-24T13:48:05.662Z,4.3
2023-02-24T13:49:22.549Z,4.3
2023-02-24T13:50:04.106Z,4.3
2023-02-24T13:51:04.125Z,4.3
2023-02-24T13:52:22.207Z,4.5
2023-02-24T13:53:04.229Z,4.4
2023-02-24T13:54:04.288Z,4.3
2023-02-24T13:55:23.283Z,4.4
2023-02-24T13:56:04.383Z,4.3
2023-02-24T13:57:04.431Z,4.2
2023-02-24T13:58:23.230Z,4.3
2023-02-24T13:59:04.557Z,4.2
2023-02-24T14:00:04.625Z,4.1
2023-02-24T14:01:24.128Z,4.2
2023-02-24T14:02:04.703Z,4.3
2023-02-24T14:03:04.743Z,4.3
2023-02-24T14:04:24.406Z,4.2
2023-02-24T14:05:04.886Z,4.2
2023-02-24T14:06:04.940Z,4.3
2023-02-24T14:07:23.519Z,4.2
2023-02-24T14:08:05.068Z,4.1
2023-02-24T14:09:05.112Z,4
2023-02-24T14:10:25.254Z,4.1
2023-02-24T14:11:05.215Z,4.1
2023-02-24T14:12:05.275Z,4.2
2023-02-24T14:13:23.190Z,4.2
2023-02-24T14:14:05.382Z,4.3
2023-02-24T14:15:05.485Z,4.1
2023-02-24T14:16:28.185Z,4.3
2023-02-24T14:17:05.631Z,4
2023-02-24T14:18:05.601Z,3.9
2023-02-24T14:19:23.905Z,4
2023-02-24T14:20:05.722Z,4
2023-02-24T14:21:05.761Z,4
2023-02-24T14:22:25.431Z,4.1
2023-02-24T14:23:05.919Z,4.1
2023-02-24T14:24:05.989Z,4.1
2023-02-24T14:25:14.702Z,4.1
2023-02-24T14:26:06.103Z,4.1
2023-02-24T14:27:06.206Z,4
2023-02-24T14:28:25.085Z,4
2023-02-24T14:29:06.354Z,4
2023-02-24T14:30:06.346Z,4
2023-02-24T14:31:10.741Z,4
2023-02-24T14:32:07.821Z,4
2023-02-24T14:33:06.499Z,4
2023-02-24T14:34:23.770Z,4.1
2023-02-24T14:35:07.183Z,4.1
2023-02-24T14:36:07.658Z,4.1
2023-02-24T14:37:23.285Z,4.1
2023-02-24T14:39:07.589Z,4.2
2023-02-24T14:42:07.408Z,4.2
2023-02-24T14:43:22.589Z,4.1
2023-02-24T14:45:25.840Z,4.1
2023-02-24T14:46:07.721Z,4.2
2023-02-24T14:47:07.617Z,4.2
2023-02-24T14:48:07.725Z,4.2
2023-02-24T14:49:07.761Z,4.3
2023-02-24T14:50:07.807Z,4.1
2023-02-24T14:51:07.902Z,4.1
2023-02-24T14:52:17.963Z,4.3
2023-02-24T14:53:08.067Z,4.1
2023-02-24T14:54:08.072Z,4.2
2023-02-24T14:55:08.103Z,4.2
2023-02-24T14:56:09.336Z,4.3
2023-02-24T14:57:08.247Z,4.1
2023-02-24T14:58:19.598Z,4.2
2023-02-24T14:59:08.271Z,4.2
2023-02-24T15:00:08.385Z,4.2
2023-02-24T15:01:08.432Z,4.2
2023-02-24T15:02:08.471Z,4.2
2023-02-24T15:03:08.538Z,4.3
2023-02-24T15:04:16.202Z,4.2
2023-02-24T15:05:08.654Z,4.3
2023-02-24T15:06:08.733Z,4.1
2023-02-24T15:07:08.742Z,4.3
2023-02-24T15:08:08.812Z,4.2
2023-02-24T15:09:08.899Z,4.2
2023-02-24T15:10:10.120Z,4.2
2023-02-24T15:11:09.440Z,4.3
2023-02-24T15:12:09.296Z,4.2
2023-02-24T15:13:09.153Z,4.3
2023-02-24T15:14:09.102Z,4.1
2023-02-24T15:15:09.213Z,4
2023-02-24T15:16:22.148Z,4.1
2023-02-24T15:17:09.312Z,4.2
2023-02-24T15:18:12.979Z,4.2
2023-02-24T15:19:09.471Z,4.3
2023-02-24T15:20:11.515Z,4.3
2023-02-24T15:21:09.545Z,4.2
2023-02-24T15:22:17.306Z,4.1
2023-02-24T15:23:09.682Z,4
2023-02-24T15:24:18.913Z,4.2